createdAt,value
2023-01-17T00:02:20.951Z,36.39
2023-01-17T00:05:07.113Z,36.35
2023-01-17T00:07:53.414Z,36.38
2023-01-17T00:10:26.004Z,36.76
2023-01-17T00:13:00.941Z,37.06
2023-01-17T00:15:29.841Z,36.92
2023-01-17T00:17:57.925Z,36.85
2023-01-17T00:20:46.229Z,37.05
2023-01-17T00:23:41.403Z,37.12
2023-01-17T00:26:14.708Z,37.39
2023-01-17T00:28:43.353Z,37.67
2023-01-17T00:31:13.950Z,37.92
2023-01-17T00:33:41.783Z,38.16
2023-01-17T00:36:10.005Z,38.17
2023-01-17T00:38:38.532Z,38.11
2023-01-17T00:41:10.845Z,38.25
2023-01-17T00:43:57.211Z,38.23
2023-01-17T00:46:43.814Z,37.98
2023-01-17T00:49:29.801Z,38.14
2023-01-17T00:52:15.898Z,38.23
2023-01-17T00:55:02.316Z,38.26
2023-01-17T00:57:48.911Z,38.54
2023-01-17T01:00:38.119Z,37.72
2023-01-17T01:03:29.372Z,37.35
2023-01-17T01:06:15.534Z,37.25
2023-01-17T01:09:01.525Z,37.00
2023-01-17T01:11:48.079Z,36.69
2023-01-17T01:14:34.099Z,36.67
2023-01-17T01:17:20.380Z,37.03
2023-01-17T01:20:06.995Z,37.17
2023-01-17T01:22:52.889Z,37.30
2023-01-17T01:25:39.519Z,37.40
2023-01-17T01:28:28.641Z,37.80
2023-01-17T01:31:14.667Z,37.61
2023-01-17T01:33:42.592Z,37.55
2023-01-17T01:36:10.435Z,37.71
2023-01-17T01:38:38.186Z,37.66
2023-01-17T01:41:06.135Z,38.09
2023-01-17T01:43:43.427Z,37.87
2023-01-17T01:46:13.444Z,37.87
2023-01-17T01:49:03.657Z,37.62
2023-01-17T01:51:39.442Z,37.90
2023-01-17T01:54:10.714Z,37.75
2023-01-17T01:56:39.322Z,38.23
2023-01-17T01:59:09.021Z,37.96
2023-01-17T02:01:37.199Z,38.25
2023-01-17T02:04:05.397Z,38.23
2023-01-17T02:06:34.861Z,38.47
2023-01-17T02:09:08.129Z,38.05
2023-01-17T02:11:37.189Z,38.56
2023-01-17T02:14:04.996Z,38.07
2023-01-17T02:16:51.023Z,38.33
2023-01-17T02:19:36.924Z,38.38
2023-01-17T02:22:26.408Z,38.38
2023-01-17T02:25:24.350Z,38.13
2023-01-17T02:28:10.458Z,38.37
2023-01-17T02:30:42.194Z,38.24
2023-01-17T02:33:14.730Z,38.33
2023-01-17T02:35:54.688Z,38.37
2023-01-17T02:38:32.693Z,38.65
2023-01-17T02:41:09.367Z,38.34
2023-01-17T02:43:37.307Z,38.36
2023-01-17T02:46:05.226Z,38.78
2023-01-17T02:48:33.853Z,38.50
2023-01-17T02:51:24.590Z,38.34
2023-01-17T02:53:57.197Z,38.47
2023-01-17T02:56:46.484Z,38.46
2023-01-17T02:59:33.328Z,38.70
2023-01-17T03:02:08.911Z,38.07
2023-01-17T03:04:52.201Z,38.14
2023-01-17T03:07:22.410Z,38.12
2023-01-17T03:09:54.043Z,37.86
2023-01-17T03:12:22.064Z,38.11
2023-01-17T03:14:50.123Z,38.00
2023-01-17T03:17:18.014Z,38.10
2023-01-17T03:19:45.751Z,38.04
2023-01-17T03:22:13.578Z,38.23
2023-01-17T03:24:41.388Z,38.50
2023-01-17T03:27:09.214Z,39.13
2023-01-17T03:29:37.045Z,39.20
2023-01-17T03:32:04.977Z,39.08
2023-01-17T03:34:32.853Z,39.47
2023-01-17T03:37:00.580Z,39.02
2023-01-17T03:39:28.675Z,39.02
2023-01-17T03:41:56.429Z,39.16
2023-01-17T03:44:24.267Z,38.67
2023-01-17T03:46:52.201Z,38.28
2023-01-17T03:49:20.045Z,38.46
2023-01-17T03:51:47.960Z,37.62
2023-01-17T03:54:15.846Z,37.50
2023-01-17T03:56:43.768Z,36.84
2023-01-17T03:59:13.169Z,36.30
2023-01-17T04:01:41.174Z,36.19
2023-01-17T04:04:09.096Z,35.47
2023-01-17T04:06:37.110Z,35.20
2023-01-17T04:09:04.957Z,35.33
2023-01-17T04:11:32.840Z,35.87
2023-01-17T04:14:00.677Z,35.42
2023-01-17T04:16:31.857Z,35.56
2023-01-17T04:18:59.915Z,35.35
2023-01-17T04:21:27.876Z,35.40
2023-01-17T04:23:55.782Z,34.98
2023-01-17T04:26:23.557Z,35.08
2023-01-17T04:28:51.571Z,35.20
2023-01-17T04:31:19.473Z,35.26
2023-01-17T04:33:47.329Z,35.35
2023-01-17T04:36:15.093Z,35.48
2023-01-17T04:38:43.203Z,35.39
2023-01-17T04:41:10.972Z,35.56
2023-01-17T04:43:38.770Z,35.37
2023-01-17T04:46:10.385Z,35.40
2023-01-17T04:48:38.352Z,35.52
2023-01-17T04:51:06.383Z,34.87
2023-01-17T04:53:34.135Z,34.76
2023-01-17T04:56:02.566Z,34.86
2023-01-17T04:58:30.651Z,34.89
2023-01-17T05:01:05.309Z,35.09
2023-01-17T05:03:34.866Z,34.95
2023-01-17T05:06:02.789Z,35.31
2023-01-17T05:08:30.769Z,35.29
2023-01-17T05:10:58.644Z,35.16
2023-01-17T05:13:26.560Z,35.35
2023-01-17T05:15:54.404Z,35.45
2023-01-17T05:18:22.187Z,35.08
2023-01-17T05:20:50.109Z,35.27
2023-01-17T05:23:18.039Z,35.42
2023-01-17T05:25:46.043Z,35.61
2023-01-17T05:28:13.820Z,34.90
2023-01-17T05:30:41.831Z,34.80
2023-01-17T05:33:10.566Z,34.81
2023-01-17T05:35:38.569Z,34.98
2023-01-17T05:38:06.318Z,35.02
2023-01-17T05:40:34.440Z,34.92
2023-01-17T05:43:03.750Z,35.21
2023-01-17T05:45:32.737Z,35.36
2023-01-17T05:48:00.845Z,35.06
2023-01-17T05:50:30.801Z,35.31
2023-01-17T05:53:03.667Z,34.99
2023-01-17T05:55:31.615Z,34.78
2023-01-17T05:57:59.478Z,35.04
2023-01-17T06:00:27.597Z,35.18
2023-01-17T06:02:56.346Z,35.54
2023-01-17T06:05:24.369Z,35.73
2023-01-17T06:07:52.188Z,35.27
2023-01-17T06:10:21.268Z,35.35
2023-01-17T06:12:49.352Z,35.35
2023-01-17T06:15:18.058Z,35.50
2023-01-17T06:17:45.933Z,35.42
2023-01-17T06:20:13.899Z,35.27
2023-01-17T06:22:41.686Z,35.56
2023-01-17T06:25:09.863Z,35.59
2023-01-17T06:27:37.633Z,35.45
2023-01-17T06:30:05.872Z,35.53
2023-01-17T06:32:33.771Z,35.43
2023-01-17T06:35:01.693Z,35.23
2023-01-17T06:37:29.656Z,35.13
2023-01-17T06:39:57.612Z,35.27
2023-01-17T06:42:25.488Z,35.50
2023-01-17T06:44:53.178Z,35.45
2023-01-17T06:47:21.104Z,35.51
2023-01-17T06:49:48.973Z,35.44
2023-01-17T06:52:16.710Z,35.68
2023-01-17T06:54:44.619Z,36.04
2023-01-17T06:57:12.404Z,36.31
2023-01-17T06:59:40.449Z,36.80
2023-01-17T07:02:10.929Z,36.56
2023-01-17T07:04:38.777Z,37.02
2023-01-17T07:07:06.593Z,37.77
2023-01-17T07:09:34.508Z,38.13
2023-01-17T07:12:02.531Z,38.92
2023-01-17T07:14:30.534Z,39.33
2023-01-17T07:16:58.407Z,40.69
2023-01-17T07:19:26.232Z,41.55
2023-01-17T07:21:54.573Z,41.75
2023-01-17T07:24:22.441Z,42.47
2023-01-17T07:26:53.607Z,42.86
2023-01-17T07:29:21.708Z,43.22
2023-01-17T07:31:49.507Z,43.65
2023-01-17T07:34:17.240Z,43.45
2023-01-17T07:36:45.153Z,43.11
2023-01-17T07:39:13.097Z,43.44
2023-01-17T07:41:41.729Z,43.02
2023-01-17T07:44:11.134Z,43.37
2023-01-17T07:46:39.140Z,42.98
2023-01-17T07:49:06.898Z,43.31
2023-01-17T07:51:34.749Z,43.50
2023-01-17T07:54:02.636Z,42.96
2023-01-17T07:56:30.427Z,42.85
2023-01-17T07:58:58.312Z,42.83
2023-01-17T08:01:26.244Z,42.68
2023-01-17T08:03:55.214Z,42.72
2023-01-17T08:06:24.919Z,42.54
2023-01-17T08:08:59.407Z,42.12
2023-01-17T08:11:27.126Z,41.69
2023-01-17T08:13:59.943Z,41.17
2023-01-17T08:16:29.003Z,40.40
2023-01-17T08:18:57.286Z,39.76
2023-01-17T08:21:25.321Z,39.48
2023-01-17T08:23:53.366Z,39.25
2023-01-17T08:26:22.647Z,38.90
2023-01-17T08:29:03.135Z,38.98
2023-01-17T08:31:32.693Z,39.05
2023-01-17T08:34:00.567Z,39.33
2023-01-17T08:36:29.226Z,39.15
2023-01-17T08:38:57.223Z,38.64
2023-01-17T08:41:25.309Z,39.07
2023-01-17T08:43:53.159Z,38.75
2023-01-17T08:46:20.974Z,38.86
2023-01-17T08:48:48.826Z,38.59
2023-01-17T08:51:16.655Z,38.56
2023-01-17T08:53:44.476Z,38.63
2023-01-17T08:56:12.532Z,38.59
2023-01-17T08:58:41.894Z,38.98
2023-01-17T09:01:10.020Z,38.27
2023-01-17T09:03:40.702Z,38.61
2023-01-17T09:06:15.842Z,38.39
2023-01-17T09:08:50.172Z,38.10
2023-01-17T09:11:18.348Z,37.94
2023-01-17T09:13:46.565Z,38.45
2023-01-17T09:16:14.659Z,39.04
2023-01-17T09:18:42.538Z,39.83
2023-01-17T09:21:17.436Z,40.45
2023-01-17T09:23:45.803Z,40.84
2023-01-17T09:26:19.766Z,41.23
2023-01-17T09:28:47.720Z,41.10
2023-01-17T09:31:17.482Z,41.00
2023-01-17T09:33:45.557Z,41.75
2023-01-17T09:36:13.621Z,41.86
2023-01-17T09:38:41.473Z,41.91
2023-01-17T09:41:59.184Z,42.06
2023-01-17T09:44:28.371Z,41.94
2023-01-17T09:47:03.346Z,42.19
2023-01-17T09:49:33.206Z,42.22
2023-01-17T09:52:01.235Z,42.10
2023-01-17T09:54:36.314Z,41.96
2023-01-17T09:57:17.981Z,41.65
2023-01-17T10:00:02.897Z,40.97
2023-01-17T10:02:50.311Z,40.01
2023-01-17T10:05:29.552Z,39.60
2023-01-17T10:08:28.317Z,39.60
2023-01-17T10:11:34.766Z,39.01
2023-01-17T10:14:23.772Z,38.97
2023-01-17T10:17:19.079Z,39.23
2023-01-17T10:20:24.843Z,38.82
2023-01-17T10:22:55.732Z,38.65
2023-01-17T10:25:45.413Z,38.96
2023-01-17T10:28:14.439Z,38.55
2023-01-17T10:30:53.064Z,38.69
2023-01-17T10:33:27.492Z,38.96
2023-01-17T10:36:00.044Z,39.10
2023-01-17T10:38:31.683Z,39.11
2023-01-17T10:41:11.425Z,39.05
2023-01-17T10:43:45.789Z,39.13
2023-01-17T10:46:20.030Z,39.42
2023-01-17T10:48:48.707Z,38.91
2023-01-17T10:51:22.441Z,38.73
2023-01-17T10:54:02.047Z,38.97
2023-01-17T10:56:29.929Z,38.82
2023-01-17T10:59:17.323Z,38.96
2023-01-17T11:01:45.454Z,38.65
2023-01-17T11:04:41.040Z,38.92
2023-01-17T11:07:21.954Z,38.98
2023-01-17T11:09:54.325Z,38.89
2023-01-17T11:12:39.761Z,39.24
2023-01-17T11:15:10.542Z,39.28
2023-01-17T11:17:42.441Z,38.89
2023-01-17T11:20:26.613Z,38.88
2023-01-17T11:23:21.726Z,39.46
2023-01-17T11:25:59.926Z,38.95
2023-01-17T11:28:32.320Z,39.18
2023-01-17T11:31:01.993Z,39.05
2023-01-17T11:33:35.937Z,39.19
2023-01-17T11:36:03.754Z,39.23
2023-01-17T11:38:31.691Z,39.00
2023-01-17T11:41:20.767Z,39.20
2023-01-17T11:43:56.332Z,39.17
2023-01-17T11:46:29.780Z,39.29
2023-01-17T11:49:00.003Z,39.30
2023-01-17T11:51:35.955Z,39.26
2023-01-17T11:54:15.418Z,39.52
2023-01-17T11:56:46.611Z,39.41
2023-01-17T11:59:33.897Z,39.38
2023-01-17T12:02:24.651Z,39.66
2023-01-17T12:05:10.659Z,39.67
2023-01-17T12:07:44.081Z,39.42
2023-01-17T12:10:29.348Z,39.13
2023-01-17T12:13:42.557Z,39.73
2023-01-17T12:16:31.853Z,39.63
2023-01-17T12:19:19.290Z,40.06
2023-01-17T12:22:23.125Z,39.66
2023-01-17T12:25:18.137Z,39.63
2023-01-17T12:28:04.389Z,39.73
2023-01-17T12:30:44.325Z,39.76
2023-01-17T12:33:53.166Z,39.93
2023-01-17T12:36:36.573Z,39.87
2023-01-17T12:39:10.625Z,39.54
2023-01-17T12:41:52.497Z,39.75
2023-01-17T12:44:20.562Z,40.01
2023-01-17T12:46:54.866Z,40.04
2023-01-17T12:49:48.823Z,39.88
2023-01-17T12:52:27.925Z,40.08
2023-01-17T12:55:01.722Z,39.80
2023-01-17T12:57:47.236Z,40.22
2023-01-17T13:00:20.080Z,40.14
2023-01-17T13:02:54.721Z,39.89
2023-01-17T13:05:36.789Z,39.86
2023-01-17T13:08:14.103Z,39.87
2023-01-17T13:11:17.649Z,39.98
2023-01-17T13:13:45.282Z,40.15
2023-01-17T13:16:15.373Z,39.95
2023-01-17T13:18:47.889Z,40.34
2023-01-17T13:21:21.776Z,40.42
2023-01-17T13:24:06.380Z,40.44
2023-01-17T13:26:59.667Z,40.36
2023-01-17T13:29:36.411Z,40.24
2023-01-17T13:32:35.889Z,39.93
2023-01-17T13:35:15.243Z,40.26
2023-01-17T13:37:48.958Z,40.26
2023-01-17T13:40:56.170Z,40.29
2023-01-17T13:43:26.587Z,40.09
2023-01-17T13:45:58.689Z,40.53
2023-01-17T13:48:28.467Z,40.58
2023-01-17T13:50:58.476Z,40.53
2023-01-17T13:53:35.498Z,40.36
2023-01-17T13:56:29.189Z,40.54
2023-01-17T13:59:02.530Z,40.17
2023-01-17T14:01:35.312Z,40.50
2023-01-17T14:04:03.575Z,40.69
2023-01-17T14:06:49.211Z,40.46
2023-01-17T14:09:27.386Z,40.42
2023-01-17T14:11:58.232Z,40.46
2023-01-17T14:14:41.437Z,40.58
2023-01-17T14:17:21.499Z,40.62
2023-01-17T14:19:53.599Z,40.59
2023-01-17T14:22:21.451Z,40.38
2023-01-17T14:25:17.823Z,40.40
2023-01-17T14:27:52.960Z,40.52
2023-01-17T14:30:34.745Z,40.31
2023-01-17T14:33:02.539Z,40.48
2023-01-17T14:35:36.039Z,40.45
2023-01-17T14:38:06.112Z,40.51
2023-01-17T14:40:34.854Z,40.41
2023-01-17T14:43:08.296Z,40.39
2023-01-17T14:45:36.228Z,40.39
2023-01-17T14:48:06.223Z,40.52
2023-01-17T14:50:42.670Z,40.40
2023-01-17T14:53:15.889Z,40.22
2023-01-17T14:55:49.753Z,40.39
2023-01-17T14:58:26.461Z,40.28
2023-01-17T15:01:00.472Z,40.11
2023-01-17T15:03:29.380Z,40.77
2023-01-17T15:05:57.584Z,40.62
2023-01-17T15:08:35.901Z,40.44
2023-01-17T15:11:05.805Z,40.62
2023-01-17T15:13:45.463Z,40.08
2023-01-17T15:16:26.832Z,40.43
2023-01-17T15:18:55.459Z,40.68
2023-01-17T15:21:33.882Z,40.35
2023-01-17T15:24:04.341Z,40.30
2023-01-17T15:26:34.976Z,40.19
2023-01-17T15:29:07.282Z,40.18
2023-01-17T15:32:17.354Z,40.19
2023-01-17T15:34:45.735Z,40.10
2023-01-17T15:37:42.794Z,40.00
2023-01-17T15:40:24.491Z,39.99
2023-01-17T15:42:59.872Z,39.99
2023-01-17T15:45:32.364Z,39.94
2023-01-17T15:48:37.085Z,39.76
2023-01-17T15:51:05.127Z,39.66
2023-01-17T15:53:37.514Z,39.81
2023-01-17T15:56:32.845Z,39.87
2023-01-17T15:59:48.407Z,39.64
2023-01-17T16:02:27.888Z,40.02
2023-01-17T16:04:55.824Z,39.86
2023-01-17T16:07:34.690Z,40.21
2023-01-17T16:10:06.617Z,39.96
2023-01-17T16:12:34.476Z,40.00
2023-01-17T16:15:12.400Z,39.80
2023-01-17T16:17:41.676Z,39.85
2023-01-17T16:20:16.270Z,39.92
2023-01-17T16:22:44.403Z,39.95
2023-01-17T16:25:20.144Z,39.70
2023-01-17T16:27:48.490Z,39.73
2023-01-17T16:30:20.487Z,39.51
2023-01-17T16:32:51.929Z,39.47
2023-01-17T16:35:21.612Z,39.70
2023-01-17T16:37:53.833Z,39.38
2023-01-17T16:40:23.281Z,39.44
2023-01-17T16:42:51.134Z,39.24
2023-01-17T16:45:19.258Z,39.52
2023-01-17T16:47:48.034Z,39.55
2023-01-17T16:50:17.581Z,39.69
2023-01-17T16:52:45.470Z,39.54
2023-01-17T16:55:14.298Z,39.55
2023-01-17T16:57:42.464Z,39.64
2023-01-17T17:00:11.253Z,39.71
2023-01-17T17:02:39.784Z,39.77
2023-01-17T17:05:08.987Z,39.98
2023-01-17T17:07:37.900Z,39.87
2023-01-17T17:10:06.140Z,39.52
2023-01-17T17:12:34.251Z,40.07
2023-01-17T17:15:02.170Z,39.90
2023-01-17T17:17:30.040Z,39.86
2023-01-17T17:19:57.896Z,40.12
2023-01-17T17:22:25.702Z,40.30
2023-01-17T17:24:53.589Z,40.33
2023-01-17T17:27:26.687Z,40.38
2023-01-17T17:29:54.692Z,40.25
2023-01-17T17:32:22.703Z,40.15
2023-01-17T17:34:53.576Z,40.12
2023-01-17T17:37:22.872Z,40.36
2023-01-17T17:39:50.651Z,40.33
2023-01-17T17:42:20.397Z,40.41
2023-01-17T17:44:48.365Z,40.41
2023-01-17T17:47:16.732Z,40.65
2023-01-17T17:49:44.602Z,40.67
2023-01-17T17:52:13.125Z,41.04
2023-01-17T17:54:41.076Z,40.64
2023-01-17T17:57:09.084Z,40.88
2023-01-17T17:59:36.836Z,41.08
2023-01-17T18:02:11.136Z,41.23
2023-01-17T18:04:39.341Z,41.03
2023-01-17T18:07:07.291Z,41.38
2023-01-17T18:09:35.267Z,41.32
2023-01-17T18:12:03.778Z,41.40
2023-01-17T18:14:31.728Z,41.26
2023-01-17T18:16:59.617Z,41.07
2023-01-17T18:19:29.459Z,41.18
2023-01-17T18:21:58.506Z,41.33
2023-01-17T18:24:27.225Z,41.37
2023-01-17T18:26:59.279Z,41.27
2023-01-17T18:29:27.590Z,40.91
2023-01-17T18:31:55.437Z,41.23
2023-01-17T18:34:27.261Z,40.87
2023-01-17T18:36:55.275Z,40.85
2023-01-17T18:39:25.805Z,40.66
2023-01-17T18:41:54.350Z,40.87
2023-01-17T18:44:22.634Z,40.84
2023-01-17T18:47:02.291Z,40.50
2023-01-17T18:49:30.078Z,40.62
2023-01-17T18:51:57.948Z,41.14
2023-01-17T18:54:26.775Z,40.88
2023-01-17T18:56:55.929Z,40.86
2023-01-17T18:59:23.880Z,40.73
2023-01-17T19:01:52.588Z,41.15
2023-01-17T19:04:20.862Z,40.94
2023-01-17T19:06:49.464Z,40.93
2023-01-17T19:09:17.482Z,40.77
2023-01-17T19:11:46.567Z,41.22
2023-01-17T19:14:14.884Z,41.36
2023-01-17T19:16:43.181Z,41.04
2023-01-17T19:19:13.322Z,41.23
2023-01-17T19:21:41.241Z,41.17
2023-01-17T19:24:10.129Z,41.25
2023-01-17T19:26:38.466Z,41.31
2023-01-17T19:29:07.300Z,41.27
2023-01-17T19:31:40.080Z,41.15
2023-01-17T19:34:07.646Z,41.17
2023-01-17T19:36:36.751Z,41.17
2023-01-17T19:39:06.573Z,41.21
2023-01-17T19:41:35.834Z,41.18
2023-01-17T19:44:05.416Z,41.35
2023-01-17T19:46:33.615Z,41.43
2023-01-17T19:49:01.588Z,41.47
2023-01-17T19:51:29.492Z,41.36
2023-01-17T19:53:59.547Z,41.14
2023-01-17T19:56:27.563Z,41.33
2023-01-17T19:58:57.504Z,41.49
2023-01-17T20:01:28.127Z,41.25
2023-01-17T20:03:57.954Z,41.30
2023-01-17T20:06:29.239Z,41.75
2023-01-17T20:08:57.156Z,41.33
2023-01-17T20:11:25.502Z,41.15
2023-01-17T20:13:54.835Z,41.66
2023-01-17T20:16:23.392Z,41.28
2023-01-17T20:18:51.467Z,41.43
2023-01-17T20:21:23.978Z,41.64
2023-01-17T20:23:52.555Z,41.61
2023-01-17T20:26:22.669Z,41.94
2023-01-17T20:28:51.974Z,41.60
2023-01-17T20:31:21.672Z,41.66
2023-01-17T20:33:52.575Z,41.85
2023-01-17T20:36:21.538Z,42.22
2023-01-17T20:38:49.470Z,42.21
2023-01-17T20:41:21.190Z,42.38
2023-01-17T20:43:53.495Z,42.59
2023-01-17T20:46:22.431Z,42.76
2023-01-17T20:48:54.746Z,42.36
2023-01-17T20:51:23.550Z,42.83
2023-01-17T20:53:52.690Z,42.68
2023-01-17T20:56:20.808Z,42.86
2023-01-17T20:58:49.586Z,43.14
2023-01-17T21:01:23.167Z,42.94
2023-01-17T21:03:53.478Z,42.90
2023-01-17T21:06:23.004Z,42.96
2023-01-17T21:08:51.363Z,42.82
2023-01-17T21:11:24.366Z,42.82
2023-01-17T21:13:52.338Z,43.34
2023-01-17T21:16:21.590Z,43.13
2023-01-17T21:18:50.477Z,43.08
2023-01-17T21:21:22.780Z,42.98
2023-01-17T21:23:51.495Z,42.81
2023-01-17T21:26:19.741Z,42.99
2023-01-17T21:28:48.024Z,42.91
2023-01-17T21:31:25.594Z,42.78
2023-01-17T21:34:01.043Z,42.90
2023-01-17T21:36:31.066Z,42.79
2023-01-17T21:38:59.593Z,42.71
2023-01-17T21:41:29.912Z,43.10
2023-01-17T21:43:59.336Z,42.78
2023-01-17T21:46:27.593Z,42.95
2023-01-17T21:48:57.170Z,42.89
2023-01-17T21:51:25.320Z,42.56
2023-01-17T21:53:53.085Z,42.57
2023-01-17T21:56:39.558Z,42.13
2023-01-17T21:59:07.529Z,42.21
2023-01-17T22:01:35.556Z,42.61
2023-01-17T22:04:04.387Z,42.05
2023-01-17T22:06:34.770Z,45.23
2023-01-17T22:09:03.758Z,50.39
2023-01-17T22:11:31.692Z,53.36
2023-01-17T22:13:59.561Z,54.81
2023-01-17T22:16:27.337Z,55.96
2023-01-17T22:18:55.172Z,57.30
2023-01-17T22:21:28.501Z,58.92
2023-01-17T22:23:57.724Z,60.12
2023-01-17T22:26:30.327Z,60.40
2023-01-17T22:29:01.379Z,60.88
2023-01-17T22:31:29.405Z,60.93
2023-01-17T22:33:58.029Z,61.05
2023-01-17T22:36:26.019Z,61.82
2023-01-17T22:38:53.948Z,61.68
2023-01-17T22:41:28.243Z,60.96
2023-01-17T22:43:58.521Z,61.47
2023-01-17T22:46:27.983Z,60.69
2023-01-17T22:48:55.941Z,60.29
2023-01-17T22:51:24.619Z,60.29
2023-01-17T22:53:57.210Z,59.99
2023-01-17T22:56:27.076Z,59.56
2023-01-17T22:58:54.996Z,59.55
2023-01-17T23:01:24.621Z,58.77
2023-01-17T23:03:54.163Z,64.62
2023-01-17T23:06:28.512Z,61.46
2023-01-17T23:08:57.593Z,60.50
2023-01-17T23:11:46.475Z,59.94
2023-01-17T23:14:24.067Z,59.29
2023-01-17T23:17:20.589Z,58.22
2023-01-17T23:19:52.912Z,58.36
2023-01-17T23:22:28.107Z,57.88
2023-01-17T23:25:00.926Z,58.43
2023-01-17T23:27:57.921Z,58.09
2023-01-17T23:30:35.093Z,58.20
2023-01-17T23:33:07.148Z,58.06
2023-01-17T23:35:41.209Z,58.89
2023-01-17T23:38:31.190Z,57.99
2023-01-17T23:41:26.726Z,57.61
2023-01-17T23:43:55.998Z,57.59
2023-01-17T23:46:25.760Z,57.39
2023-01-17T23:48:55.407Z,58.07
2023-01-17T23:51:23.288Z,56.20
2023-01-17T23:53:55.625Z,57.29
2023-01-17T23:56:23.792Z,56.26
2023-01-17T23:58:51.768Z,55.83
